Time;durP1;ratioP1;P1;durP2;ratioP2;P2;SDS_P1;SDS_P2;PMS_P1;PMS_P2;Temp;Humidity;BMP_temperature;BMP_pressure;BME280_temperature;BME280_humidity;BME280_pressure;Samples;Min_cycle;Max_cycle;Signal;HPM_P1;HPM_P2
2021/04/30 00:00:04;;;;;;;1.95;1.38;;;8.50;60.50;;;11.07;48.72;101050.09;5050838;27;96922;-68
2021/04/30 00:02:32;;;;;;;2.00;1.27;;;8.40;60.50;;;11.02;48.74;101037.56;5071809;27;98369;-68
2021/04/30 00:04:59;;;;;;;2.63;2.42;;;8.40;60.50;;;10.99;48.63;101045.44;5072703;27;97915;-68
2021/04/30 00:07:29;;;;;;;1.70;1.48;;;8.40;60.60;;;10.91;48.66;101046.09;5054538;27;96877;-68
2021/04/30 00:09:56;;;;;;;1.17;1.15;;;8.30;60.50;;;10.88;48.89;101048.59;5065226;27;96916;-68
2021/04/30 00:12:24;;;;;;;1.75;1.48;;;8.30;60.60;;;10.82;48.94;101045.19;5069781;27;97329;-68
2021/04/30 00:14:52;;;;;;;31.27;3.03;;;8.30;60.60;;;10.76;48.96;101049.06;5068000;27;97823;-68
2021/04/30 00:17:20;;;;;;;8.60;4.97;;;8.20;60.60;;;10.69;48.97;101051.34;5066909;27;96872;-68
2021/04/30 00:19:48;;;;;;;3.10;1.50;;;8.20;60.70;;;10.67;48.96;101047.34;5050023;27;97377;-68
2021/04/30 00:22:16;;;;;;;3.70;1.95;;;8.20;60.80;;;10.68;48.95;101043.56;5068083;27;97174;-68
2021/04/30 00:24:43;;;;;;;0.95;0.90;;;8.10;60.80;;;10.74;48.90;101051.25;5065674;27;97607;-68
2021/04/30 00:27:11;;;;;;;5.00;2.65;;;8.10;60.90;;;10.81;48.82;101057.00;5066440;27;97300;-68
2021/04/30 00:29:40;;;;;;;2.40;2.22;;;8.10;61.00;;;10.84;48.61;101061.78;5067496;27;96704;-68
2021/04/30 00:32:07;;;;;;;2.03;1.85;;;8.10;61.00;;;10.86;48.57;101058.81;5028391;27;97359;-68
2021/04/30 00:34:39;;;;;;;2.20;1.48;;;8.10;61.10;;;10.88;48.93;101063.56;5050934;27;97550;-68
2021/04/30 00:37:08;;;;;;;2.33;2.17;;;8.10;61.00;;;10.87;48.47;101065.75;5066444;27;97460;-68
2021/04/30 00:39:36;;;;;;;2.08;1.90;;;8.10;61.10;;;10.88;48.66;101070.03;5050231;27;97126;-69
2021/04/30 00:42:06;;;;;;;3.10;2.25;;;8.20;61.10;;;10.91;48.62;101064.84;5066729;27;97880;-68
2021/04/30 00:44:34;;;;;;;2.20;2.00;;;8.20;61.10;;;10.93;48.56;101076.06;5065962;27;97747;-68
2021/04/30 00:47:03;;;;;;;2.83;1.95;;;8.20;61.10;;;10.91;48.70;101073.72;5067601;27;96875;-68
2021/04/30 00:49:30;;;;;;;2.40;1.30;;;8.20;61.00;;;10.92;48.85;101077.97;5070355;27;99490;-68
2021/04/30 00:51:59;;;;;;;2.60;1.45;;;8.20;61.00;;;10.91;48.92;101078.25;5048524;27;96963;-69
2021/04/30 00:54:29;;;;;;;1.65;1.50;;;8.20;61.00;;;10.93;48.92;101082.25;5049399;27;96835;-68
2021/04/30 00:56:57;;;;;;;4.45;1.73;;;8.30;61.00;;;10.97;48.49;101082.47;5072308;27;96791;-68
2021/04/30 00:59:25;;;;;;;5.43;2.40;;;8.30;61.10;;;11.03;48.46;101087.41;5069311;27;97031;-67
2021/04/30 01:01:53;;;;;;;3.92;2.83;;;8.30;61.00;;;11.07;48.48;101085.72;5066960;27;98101;-68
2021/04/30 01:04:20;;;;;;;4.55;2.67;;;8.30;61.00;;;11.10;48.70;101095.09;5074970;27;98884;-68
2021/04/30 01:06:48;;;;;;;7.35;1.83;;;8.30;61.00;;;11.08;48.40;101092.69;5072397;27;96712;-68
2021/04/30 01:09:16;;;;;;;2.88;1.65;;;8.30;61.00;;;11.11;48.36;101094.00;5034879;27;97272;-68
2021/04/30 01:11:44;;;;;;;29.30;2.83;;;8.30;61.00;;;11.10;48.45;101093.19;5048480;27;97876;-68
2021/04/30 01:14:12;;;;;;;2.35;1.58;;;8.30;60.90;;;11.08;48.35;101100.72;5068962;27;96849;-68
2021/04/30 01:16:39;;;;;;;2.38;2.17;;;8.30;61.00;;;11.09;48.64;101105.00;5067257;27;97118;-68
2021/04/30 01:19:07;;;;;;;7.15;2.85;;;8.40;61.00;;;11.07;48.36;101114.44;5051853;27;96762;-68
2021/04/30 01:21:35;;;;;;;5.78;3.25;;;8.30;61.00;;;11.03;48.46;101106.19;5049935;27;96696;-68
2021/04/30 01:24:05;;;;;;;5.88;2.35;;;8.30;60.90;;;11.07;48.85;101109.88;5051260;27;97805;-68
2021/04/30 01:26:32;;;;;;;6.53;3.10;;;8.40;61.00;;;11.07;48.80;101109.88;5051948;27;97736;-68
2021/04/30 01:29:00;;;;;;;2.75;2.50;;;8.40;61.60;;;11.09;48.49;101110.34;5052588;27;96780;-68
2021/04/30 01:31:33;;;;;;;2.20;1.52;;;8.40;61.00;;;11.09;48.64;101113.03;5074379;27;97818;-68
2021/04/30 01:34:02;;;;;;;1.50;1.42;;;8.40;61.00;;;11.05;48.56;101117.41;5069544;27;96806;-69
2021/04/30 01:36:31;;;;;;;2.45;2.25;;;8.30;61.00;;;11.04;48.85;101115.81;5066558;27;97310;-68
2021/04/30 01:39:00;;;;;;;3.60;1.90;;;8.40;61.00;;;11.07;49.10;101120.59;5051736;27;96927;-68
2021/04/30 01:41:31;;;;;;;2.60;1.83;;;8.40;61.00;;;11.02;48.90;101120.69;5051473;27;96907;-68
2021/04/30 01:43:58;;;;;;;1.42;1.33;;;8.30;60.90;;;11.06;48.84;101120.91;5066975;27;97670;-68
2021/04/30 01:46:26;;;;;;;1.88;1.77;;;8.30;60.90;;;11.03;48.84;101124.94;5065988;27;96738;-68
2021/04/30 01:48:54;;;;;;;7.72;2.10;;;8.30;61.00;;;11.00;48.72;101125.53;5050054;27;96892;-68
2021/04/30 01:51:22;;;;;;;8.55;3.08;;;8.30;61.00;;;11.06;48.52;101126.25;5068709;27;97190;-68
2021/04/30 01:53:49;;;;;;;2.28;1.42;;;8.30;61.00;;;11.05;48.61;101124.69;5050560;27;97540;-68
2021/04/30 01:56:17;;;;;;;2.72;2.28;;;8.30;61.10;;;11.09;48.82;101131.81;5052265;27;96959;-68
2021/04/30 01:58:46;;;;;;;8.35;3.10;;;8.30;61.10;;;11.11;48.66;101132.34;5035282;27;96958;-68
2021/04/30 02:01:14;;;;;;;4.18;2.90;;;8.30;61.10;;;11.18;48.41;101129.25;5046826;27;97871;-68
2021/04/30 02:03:42;;;;;;;5.75;2.50;;;8.30;61.10;;;11.17;48.20;101133.03;5066349;27;97456;-68
2021/04/30 02:06:10;;;;;;;9.63;2.20;;;8.30;61.10;;;11.16;48.61;101131.44;5049689;27;96947;-68
2021/04/30 02:08:37;;;;;;;1.80;1.63;;;8.30;61.10;;;11.15;48.36;101133.34;5064895;27;97294;-68
2021/04/30 02:11:12;;;;;;;3.80;1.83;;;8.30;61.10;;;11.17;48.49;101128.47;5067688;27;97810;-68
2021/04/30 02:13:50;;;;;;;2.28;1.90;;;8.30;61.20;;;11.22;48.51;101128.38;5068668;27;96701;-68
2021/04/30 02:16:18;;;;;;;2.17;2.03;;;8.30;61.20;;;11.24;48.53;101133.44;5068378;27;97145;-68
2021/04/30 02:18:46;;;;;;;3.40;1.52;;;8.30;61.10;;;11.20;48.49;101130.56;5047037;27;97392;-68
2021/04/30 02:21:13;;;;;;;3.63;2.28;;;8.30;61.20;;;11.20;48.35;101129.75;5048166;27;97023;-68
2021/04/30 02:23:42;;;;;;;26.63;3.95;;;8.30;61.10;;;11.24;48.04;101136.94;5047904;27;97507;-68
2021/04/30 02:26:11;;;;;;;5.47;2.03;;;8.30;61.10;;;11.18;48.29;101132.75;5051855;27;96793;-68
2021/04/30 02:28:39;;;;;;;6.35;3.67;;;8.30;61.20;;;11.27;48.58;101135.56;5053642;27;96965;-68
2021/04/30 02:31:08;;;;;;;2.70;1.73;;;8.30;61.20;;;11.28;48.49;101134.47;5041242;27;98085;-68
2021/04/30 02:33:35;;;;;;;3.50;2.20;;;8.30;61.20;;;11.27;48.22;101136.31;5061954;27;97801;-68
2021/04/30 02:36:06;;;;;;;3.80;1.98;;;8.40;61.20;;;11.27;48.88;101139.00;5052944;27;97366;-68
2021/04/30 02:38:34;;;;;;;2.58;1.75;;;8.40;61.20;;;11.27;48.65;101144.38;5069658;27;96956;-68
2021/04/30 02:41:05;;;;;;;3.25;2.22;;;8.40;61.20;;;11.26;48.73;101145.47;5052045;27;97955;-68
2021/04/30 02:43:33;;;;;;;6.68;2.45;;;8.40;61.20;;;11.26;48.37;101145.47;5059073;27;98107;-68
2021/04/30 02:46:02;;;;;;;6.03;3.05;;;8.40;61.20;;;11.28;48.57;101147.88;5053958;27;97170;-68
2021/04/30 02:48:33;;;;;;;4.90;2.78;;;8.40;61.20;;;11.27;48.72;101148.97;5051899;27;96789;-68
2021/04/30 02:51:08;;;;;;;5.93;2.95;;;8.40;61.20;;;11.19;48.68;101147.75;5054097;27;98173;-68
2021/04/30 02:53:36;;;;;;;7.93;4.13;;;8.40;61.10;;;11.17;48.76;101141.06;5068449;27;98065;-68
2021/04/30 02:56:05;;;;;;;4.32;1.50;;;8.40;61.20;;;11.16;49.11;101139.47;5040278;27;97466;-68
2021/04/30 02:58:33;;;;;;;6.78;2.72;;;8.50;61.20;;;11.17;49.28;101141.88;5052418;27;96897;-68
2021/04/30 03:01:02;;;;;;;2.33;1.83;;;8.50;61.20;;;11.18;48.76;101143.47;5071332;27;96758;-69
2021/04/30 03:03:31;;;;;;;2.22;1.55;;;8.50;61.30;;;11.22;49.30;101147.16;5039601;27;96919;-68
2021/04/30 03:05:59;;;;;;;3.78;1.13;;;8.50;61.30;;;11.24;48.74;101147.66;5053628;27;96895;-68
2021/04/30 03:08:27;;;;;;;1.77;1.48;;;8.50;61.30;;;11.15;49.33;101149.44;5066647;27;97276;-68
2021/04/30 03:10:54;;;;;;;6.47;3.20;;;8.50;61.30;;;11.21;48.80;101158.97;5047195;27;96796;-68
2021/04/30 03:13:22;;;;;;;5.10;2.67;;;8.50;61.30;;;11.17;49.19;101151.81;5053248;27;97738;-68
2021/04/30 03:15:50;;;;;;;6.40;2.53;;;8.50;61.30;;;11.20;49.31;101157.38;5033152;27;97205;-68
2021/04/30 03:18:18;;;;;;;3.25;2.38;;;8.50;61.30;;;11.25;48.89;101154.59;5067099;27;97156;-68
2021/04/30 03:20:46;;;;;;;3.28;2.53;;;8.50;61.40;;;11.27;48.70;101157.78;5049714;27;96724;-68
2021/04/30 03:23:14;;;;;;;5.53;4.32;;;8.50;61.40;;;11.25;49.18;101167.22;5052497;27;98075;-68
2021/04/30 03:25:41;;;;;;;6.00;2.85;;;8.50;61.40;;;11.23;49.45;101162.16;5059820;27;97433;-68
2021/04/30 03:28:09;;;;;;;1.90;1.65;;;8.50;61.40;;;11.15;49.32;101162.84;5049466;27;98030;-68
2021/04/30 03:30:36;;;;;;;3.78;1.88;;;8.50;61.40;;;11.10;49.35;101162.91;5027701;27;97948;-68
2021/04/30 03:33:05;;;;;;;2.80;2.53;;;8.50;61.70;;;10.95;49.67;101160.50;5070672;27;98051;-68
2021/04/30 03:35:33;;;;;;;0.93;0.77;;;8.40;61.30;;;10.90;50.00;101167.81;5069976;27;96745;-68
2021/04/30 03:38:04;;;;;;;4.07;3.47;;;8.40;61.30;;;10.88;49.85;101164.63;5068893;27;96904;-68
2021/04/30 03:40:40;;;;;;;2.03;1.73;;;8.40;61.40;;;10.84;49.84;101165.53;5070147;27;97989;-68
2021/04/30 03:43:07;;;;;;;3.60;2.85;;;8.40;61.40;;;10.82;50.07;101170.38;5067472;27;97702;-68
2021/04/30 03:45:35;;;;;;;1.70;1.52;;;8.40;61.50;;;10.82;49.81;101173.84;5037682;27;96805;-68
2021/04/30 03:48:03;;;;;;;1.92;1.67;;;8.40;61.60;;;10.81;50.28;101174.13;5068250;27;97099;-68
2021/04/30 03:50:35;;;;;;;3.00;2.47;;;8.30;61.60;;;10.81;49.83;101163.41;5068544;27;98169;-68
2021/04/30 03:53:04;;;;;;;5.28;1.48;;;8.30;61.60;;;10.83;50.05;101167.41;5070200;27;96870;-68
2021/04/30 03:55:32;;;;;;;6.25;2.33;;;8.30;61.60;;;10.86;49.98;101169.50;5068781;27;96801;-68
2021/04/30 03:57:59;;;;;;;3.15;2.35;;;8.30;61.60;;;10.86;50.09;101177.53;5069283;27;97354;-68
2021/04/30 04:00:30;;;;;;;3.80;2.13;;;8.30;61.60;;;10.91;50.03;101185.50;5067203;27;99283;-68
2021/04/30 04:02:58;;;;;;;3.30;3.00;;;8.40;61.60;;;10.89;49.69;101180.44;5055227;27;97717;-68
2021/04/30 04:05:26;;;;;;;1.85;1.73;;;8.40;61.60;;;10.88;50.12;101183.41;5070062;27;96943;-68
2021/04/30 04:07:53;;;;;;;1.98;1.50;;;8.40;61.70;;;10.88;50.26;101186.88;5068528;27;96984;-67
2021/04/30 04:10:22;;;;;;;6.22;3.05;;;8.30;61.60;;;10.88;49.83;101186.88;5071066;27;97843;-68
2021/04/30 04:12:50;;;;;;;2.58;2.25;;;8.40;61.70;;;10.92;49.70;101193.25;5067836;27;97740;-68
2021/04/30 04:15:17;;;;;;;2.28;1.75;;;8.40;61.60;;;10.91;49.76;101197.03;5049937;27;96912;-68
2021/04/30 04:17:45;;;;;;;2.58;2.38;;;8.40;61.70;;;10.92;50.20;101195.13;5071175;27;96849;-68
2021/04/30 04:20:13;;;;;;;2.90;2.10;;;8.30;61.60;;;10.92;49.93;101197.81;5058620;27;97137;-68
2021/04/30 04:22:41;;;;;;;3.28;2.03;;;8.40;61.60;;;10.98;49.75;101200.13;5066534;27;97197;-68
2021/04/30 04:25:10;;;;;;;12.60;3.55;;;8.40;61.70;;;10.98;49.63;101202.81;5057921;27;97330;-68
2021/04/30 04:27:39;;;;;;;1.42;1.33;;;8.40;61.70;;;10.97;49.67;101203.88;5055334;27;97364;-68
2021/04/30 04:30:12;;;;;;;2.95;2.17;;;8.40;61.70;;;10.95;50.01;101202.56;5047350;27;98234;-68
2021/04/30 04:32:41;;;;;;;3.75;2.00;;;8.40;61.70;;;10.93;50.30;101207.44;5051703;27;97462;-68
2021/04/30 04:35:10;;;;;;;5.28;3.22;;;8.40;61.70;;;10.94;49.83;101203.66;5066123;27;96797;-68
2021/04/30 04:37:38;;;;;;;1.55;1.45;;;8.40;61.70;;;10.91;49.87;101209.63;5054100;27;96975;-68
2021/04/30 04:40:09;;;;;;;2.47;2.10;;;8.40;61.80;;;10.88;49.91;101216.38;5069814;27;98049;-68
2021/04/30 04:42:39;;;;;;;25.40;1.67;;;8.40;61.70;;;10.90;50.34;101213.38;5067196;27;96894;-68
2021/04/30 04:45:11;;;;;;;6.60;2.72;;;8.40;61.70;;;10.88;50.10;101227.09;5069131;27;96763;-68
2021/04/30 04:47:40;;;;;;;5.20;3.05;;;8.30;61.70;;;10.90;50.12;101227.59;5068035;27;97390;-68
2021/04/30 04:50:11;;;;;;;3.53;2.88;;;8.30;61.70;;;10.88;50.03;101229.78;5051906;27;97914;-68
2021/04/30 04:52:41;;;;;;;3.08;1.48;;;8.40;61.80;;;10.92;49.91;101230.78;5065312;27;96810;-68
2021/04/30 04:55:16;;;;;;;3.42;2.15;;;8.40;61.80;;;10.92;49.55;101232.66;5066875;27;96951;-68
2021/04/30 04:57:45;;;;;;;6.05;2.75;;;8.40;61.80;;;11.02;49.96;101230.63;5068751;27;96901;-68
2021/04/30 05:00:16;;;;;;;6.07;2.45;;;8.40;61.80;;;11.02;50.35;101233.28;5036497;27;97349;-68
2021/04/30 05:02:44;;;;;;;6.03;2.40;;;8.40;61.80;;;11.05;49.65;101235.41;5050916;27;97475;-68
2021/04/30 05:05:13;;;;;;;3.40;2.95;;;8.40;61.80;;;11.06;49.80;101238.88;5066970;27;98204;-68
2021/04/30 05:07:41;;;;;;;13.48;3.85;;;8.40;61.90;;;11.08;49.68;101236.72;5068901;27;98469;-68
2021/04/30 05:10:11;;;;;;;9.23;1.77;;;8.40;61.90;;;11.09;50.01;101244.44;5065951;27;98271;-68
2021/04/30 05:12:38;;;;;;;44.00;3.13;;;8.40;61.90;;;11.11;49.88;101233.44;5031944;27;97576;-68
2021/04/30 05:15:10;;;;;;;5.18;2.28;;;8.50;61.90;;;11.15;49.87;101237.13;5050098;27;97233;-68
2021/04/30 05:17:38;;;;;;;3.00;2.40;;;8.50;61.90;;;11.22;49.58;101230.31;5065873;27;97099;-68
2021/04/30 05:20:07;;;;;;;4.55;2.25;;;8.50;61.90;;;11.24;49.88;101230.81;5047519;27;96755;-68
2021/04/30 05:22:38;;;;;;;5.35;3.80;;;8.50;61.90;;;11.30;49.59;101226.16;5049574;27;97404;-68
2021/04/30 05:25:09;;;;;;;7.18;3.63;;;8.50;61.80;;;11.35;49.82;101234.91;5068270;27;96887;-68
2021/04/30 05:27:40;;;;;;;4.75;2.45;;;8.60;61.80;;;11.36;49.82;101231.13;5051221;27;97395;-68
2021/04/30 05:30:11;;;;;;;1.63;1.52;;;8.60;61.80;;;11.38;49.87;101236.22;5068475;27;97151;-68
2021/04/30 05:32:39;;;;;;;4.45;2.10;;;8.70;61.80;;;11.39;49.99;101245.84;5064119;27;96777;-68
2021/04/30 05:35:11;;;;;;;1.73;1.48;;;8.70;61.80;;;11.43;49.56;101250.34;5066176;27;96718;-69
2021/04/30 05:37:40;;;;;;;1.63;1.52;;;8.70;61.80;;;11.48;49.81;101255.63;5070382;27;96632;-68
2021/04/30 05:40:10;;;;;;;5.45;1.45;;;8.80;61.80;;;11.49;49.89;101259.06;5050494;27;98023;-68
2021/04/30 05:42:38;;;;;;;5.53;2.03;;;8.80;61.90;;;11.51;49.87;101265.75;5065898;27;96972;-68
2021/04/30 05:45:10;;;;;;;4.50;2.05;;;8.80;61.80;;;11.52;49.44;101270.03;5069215;27;96607;-68
2021/04/30 05:47:38;;;;;;;2.05;1.48;;;8.80;61.80;;;11.55;49.34;101269.47;5050432;27;97302;-68
2021/04/30 05:50:09;;;;;;;2.78;2.30;;;8.80;61.80;;;11.56;49.76;101268.38;5066143;27;98097;-67
2021/04/30 05:52:37;;;;;;;3.35;2.72;;;8.90;61.90;;;11.55;49.40;101261.41;5051385;27;97229;-69
2021/04/30 05:55:09;;;;;;;3.08;1.42;;;8.80;61.80;;;11.59;49.41;101265.09;5051254;27;96856;-68
2021/04/30 05:57:38;;;;;;;3.47;2.33;;;8.90;61.90;;;11.63;49.40;101258.06;5061720;27;103241;-68
2021/04/30 06:00:12;;;;;;;4.38;1.75;;;8.90;61.90;;;11.64;49.68;101254.28;5066195;27;97874;-68
2021/04/30 06:02:40;;;;;;;3.60;3.10;;;8.90;61.90;;;11.68;49.74;101247.22;5049576;27;96799;-68
2021/04/30 06:05:10;;;;;;;2.80;2.33;;;8.90;61.90;;;11.81;48.96;101251.81;5066103;27;97515;-68
2021/04/30 06:07:38;;;;;;;4.18;2.83;;;8.90;61.80;;;11.67;49.43;101256.38;5068741;27;97340;-68
2021/04/30 06:10:09;;;;;;;5.22;2.05;;;9.00;61.90;;;11.70;49.99;101255.78;5064867;27;97836;-68
2021/04/30 06:12:37;;;;;;;6.30;3.13;;;9.00;61.90;;;11.86;49.67;101259.78;5066883;27;97680;-68
2021/04/30 06:15:06;;;;;;;7.35;3.00;;;9.10;61.90;;;11.92;49.13;101261.28;5068561;27;97214;-68
2021/04/30 06:17:36;;;;;;;1.30;1.10;;;9.10;61.90;;;11.98;49.22;101252.03;5046076;27;97065;-68
2021/04/30 06:20:07;;;;;;;1.80;1.70;;;9.10;62.50;;;12.06;49.25;101256.72;5052181;27;97915;-68
2021/04/30 06:22:36;;;;;;;4.45;2.95;;;9.20;61.90;;;12.05;49.11;101255.13;5053631;27;96800;-68
2021/04/30 06:25:06;;;;;;;6.38;4.70;;;9.20;61.90;;;12.07;49.77;101258.31;5048989;27;96871;-68
2021/04/30 06:27:34;;;;;;;7.35;3.70;;;9.30;61.90;;;12.14;49.75;101263.25;5053653;27;97806;-68
2021/04/30 06:30:07;;;;;;;2.15;1.83;;;9.30;61.90;;;12.16;49.90;101267.25;5070072;27;97730;-68
2021/04/30 06:32:38;;;;;;;1.52;1.27;;;9.40;61.90;;;12.19;49.68;101266.66;5070409;27;96783;-68
2021/04/30 06:35:08;;;;;;;2.47;2.22;;;9.40;61.80;;;12.32;49.02;101265.88;5067874;27;97043;-68
2021/04/30 06:37:39;;;;;;;8.43;3.37;;;9.50;61.80;;;12.37;48.92;101270.31;5053191;27;97028;-68
2021/04/30 06:40:10;;;;;;;7.13;3.65;;;9.50;61.80;;;12.39;49.41;101268.94;5052182;27;97833;-68
2021/04/30 06:42:39;;;;;;;4.95;3.13;;;9.60;61.80;;;12.42;48.97;101268.34;5048868;27;96826;-68
2021/04/30 06:45:08;;;;;;;2.42;2.22;;;9.60;61.80;;;12.48;49.32;101269.81;5067966;27;97061;-68
2021/04/30 06:47:38;;;;;;;1.75;1.65;;;9.70;61.80;;;12.51;49.61;101275.41;5068207;27;97231;-68
2021/04/30 06:50:08;;;;;;;5.90;3.35;;;9.70;61.80;;;12.51;49.94;101277.28;5072281;27;97833;-68
2021/04/30 06:52:38;;;;;;;2.33;2.17;;;9.80;61.80;;;12.60;49.81;101280.84;5052521;27;97864;-68
2021/04/30 06:55:08;;;;;;;2.35;1.27;;;9.80;61.80;;;12.62;49.12;101282.13;5071331;27;96834;-68
2021/04/30 06:57:42;;;;;;;4.32;2.67;;;9.90;61.80;;;12.74;49.33;101281.63;5068889;27;97463;-68
2021/04/30 07:00:14;;;;;;;4.38;3.25;;;9.90;61.80;;;12.73;49.35;101285.41;5069974;27;97959;-68
2021/04/30 07:02:43;;;;;;;1.58;1.30;;;9.90;61.70;;;12.77;49.23;101278.31;5069424;27;96832;-68
2021/04/30 07:05:13;;;;;;;5.85;3.10;;;10.00;61.80;;;12.81;49.76;101285.50;5068969;27;96793;-68
2021/04/30 07:07:41;;;;;;;1.95;1.85;;;10.00;61.70;;;12.84;49.26;101282.19;5051277;27;96986;-68
2021/04/30 07:10:12;;;;;;;7.32;1.67;;;10.10;61.80;;;12.88;49.33;101283.19;5052044;27;97934;-68
2021/04/30 07:12:40;;;;;;;4.18;3.50;;;10.10;61.80;;;13.01;49.14;101290.44;5016833;27;99594;-68
2021/04/30 07:15:09;;;;;;;4.93;1.83;;;10.20;61.90;;;13.06;49.30;101287.66;5069291;27;97315;-68
2021/04/30 07:17:37;;;;;;;3.33;1.90;;;10.20;61.70;;;13.10;49.63;101296.69;5072745;27;97299;-68
2021/04/30 07:20:10;;;;;;;2.42;2.13;;;10.30;61.80;;;13.16;49.36;101298.16;5051726;27;97420;-68
2021/04/30 07:22:38;;;;;;;6.00;2.40;;;10.30;61.80;;;13.17;49.26;101299.75;5067982;27;97729;-68
2021/04/30 07:25:07;;;;;;;13.63;4.60;;;10.40;61.80;;;13.16;49.46;101297.34;5067487;27;97028;-68
2021/04/30 07:27:34;;;;;;;6.25;3.15;;;10.40;61.70;;;13.18;49.95;101306.72;5064715;27;96938;-67
2021/04/30 07:30:06;;;;;;;15.05;2.67;;;10.40;61.70;;;13.17;49.78;101309.72;5042434;27;98207;-68
2021/04/30 07:32:34;;;;;;;7.43;4.28;;;10.40;61.70;;;13.21;49.42;101310.69;5050980;27;97691;-67
2021/04/30 07:35:05;;;;;;;3.95;2.58;;;10.50;61.80;;;13.21;49.65;101321.44;5068929;27;99233;-67
2021/04/30 07:37:34;;;;;;;6.60;2.58;;;10.50;61.80;;;13.25;49.17;101312.47;5070798;27;97092;-68
2021/04/30 07:40:08;;;;;;;3.75;1.63;;;10.50;61.80;;;13.34;49.70;101310.63;5034571;27;98164;-68
2021/04/30 07:42:37;;;;;;;6.38;3.08;;;10.50;61.90;;;13.32;49.26;101306.69;5068122;27;97691;-70
2021/04/30 07:45:07;;;;;;;2.97;2.58;;;10.50;61.80;;;13.37;49.62;101306.56;5069750;27;97172;-68
2021/04/30 07:47:38;;;;;;;3.33;2.88;;;10.50;61.80;;;13.44;49.57;101310.41;5051467;27;97017;-68
2021/04/30 07:50:08;;;;;;;5.53;2.63;;;10.60;61.90;;;13.49;49.68;101302.19;5049689;27;96791;-67
2021/04/30 07:52:37;;;;;;;1.73;1.65;;;10.60;61.80;;;13.53;49.40;101305.09;5068852;27;97286;-68
2021/04/30 07:55:06;;;;;;;4.68;3.30;;;10.60;61.80;;;13.63;49.19;101300.22;5070284;27;96760;-68
2021/04/30 07:57:35;;;;;;;1.60;1.50;;;10.70;61.90;;;13.73;49.23;101299.19;5071489;27;96974;-68
2021/04/30 08:00:07;;;;;;;2.88;2.30;;;10.70;61.90;;;13.87;49.29;101291.81;5051051;27;98330;-68
2021/04/30 08:02:43;;;;;;;2.35;1.52;;;10.80;61.90;;;14.02;48.88;101307.56;5068753;27;97922;-68
2021/04/30 08:05:12;;;;;;;3.92;2.25;;;10.90;61.90;;;14.10;49.06;101303.00;5048525;27;97278;-68
2021/04/30 08:07:43;;;;;;;9.00;3.38;;;11.10;61.90;;;14.22;48.85;101310.53;5052722;27;96973;-68
2021/04/30 08:10:13;;;;;;;7.38;3.92;;;11.10;61.80;;;14.29;48.94;101308.97;5053707;27;101182;-68
2021/04/30 08:12:41;;;;;;;3.92;2.70;;;11.20;61.80;;;14.37;49.05;101310.91;5056302;27;98248;-68
2021/04/30 08:15:13;;;;;;;2.05;1.55;;;11.30;61.80;;;14.41;48.92;101303.81;5050115;27;96948;-68
2021/04/30 08:17:41;;;;;;;8.38;3.97;;;11.40;61.80;;;14.49;49.17;101305.72;5067804;27;97093;-68
2021/04/30 08:20:10;;;;;;;4.75;1.80;;;11.50;61.80;;;14.55;49.20;101304.47;5065343;27;97847;-68
2021/04/30 08:22:39;;;;;;;10.13;4.22;;;11.50;61.70;;;14.57;49.15;101310.34;5062649;27;96785;-68
2021/04/30 08:25:10;;;;;;;5.38;3.35;;;11.60;61.70;;;14.61;49.23;101316.69;5053786;27;96902;-68
2021/04/30 08:27:37;;;;;;;1.83;1.45;;;11.60;61.70;;;14.64;49.26;101305.28;5068414;27;96947;-67
2021/04/30 08:30:08;;;;;;;5.43;2.17;;;11.70;61.70;;;14.76;48.63;101315.44;5064755;27;98500;-70
2021/04/30 08:32:36;;;;;;;7.38;5.38;;;11.80;61.70;;;14.86;49.06;101310.56;5065514;27;96865;-68
2021/04/30 08:35:06;;;;;;;4.75;1.95;;;11.80;61.60;;;14.90;49.06;101314.19;5068634;27;96743;-69
2021/04/30 08:37:34;;;;;;;5.53;2.67;;;11.90;61.70;;;14.95;48.81;101316.75;5068480;27;96738;-68
2021/04/30 08:40:06;;;;;;;2.65;2.35;;;12.00;61.70;;;15.07;49.09;101318.81;5047239;27;98210;-68
2021/04/30 08:42:34;;;;;;;3.58;1.60;;;12.10;61.70;;;15.41;47.97;101316.13;5067481;27;97742;-68
2021/04/30 08:45:07;;;;;;;3.30;2.33;;;12.10;61.70;;;15.47;48.68;101325.69;5070670;27;97185;-68
2021/04/30 08:47:36;;;;;;;9.98;4.53;;;12.20;61.50;;;15.17;49.00;101319.31;5051317;27;96971;-68
2021/04/30 08:50:06;;;;;;;4.90;2.88;;;12.30;61.30;;;15.03;49.24;101326.78;5033626;27;99107;-68
2021/04/30 08:52:34;;;;;;;10.27;2.75;;;12.20;61.20;;;14.96;49.81;101322.94;5064892;27;97126;-68
2021/04/30 08:55:07;;;;;;;8.75;3.00;;;12.10;61.20;;;14.99;49.56;101331.19;5069366;27;96929;-68
2021/04/30 08:57:36;;;;;;;7.05;3.13;;;12.10;61.40;;;15.07;49.82;101332.31;5068714;27;96904;-67
2021/04/30 09:00:09;;;;;;;4.05;2.38;;;12.10;61.40;;;15.07;49.03;101327.72;5068847;27;96672;-65
2021/04/30 09:02:38;;;;;;;10.95;3.78;;;12.10;61.50;;;15.08;49.66;101326.63;5068731;27;96866;-66
2021/04/30 09:05:11;;;;;;;2.45;1.40;;;12.10;61.50;;;15.18;49.13;101318.19;5065867;27;96809;-65
2021/04/30 09:07:44;;;;;;;8.27;2.45;;;12.10;61.60;;;15.19;48.72;101327.88;5040221;27;97233;-65
2021/04/30 09:10:16;;;;;;;7.75;3.70;;;12.20;61.60;;;15.30;48.89;101326.47;5068702;27;98061;-65
2021/04/30 09:13:03;;;;;;;2.25;1.83;;;12.20;61.70;;;15.39;48.53;101319.19;5045899;27;97605;-65
2021/04/30 09:15:31;;;;;;;4.68;2.80;;;12.20;61.60;;;15.50;48.27;101325.81;5067048;27;97052;-65
2021/04/30 09:18:17;;;;;;;7.68;3.72;;;12.30;61.60;;;15.56;48.92;101315.66;5049223;27;97680;-65
2021/04/30 09:20:47;;;;;;;3.85;2.45;;;12.40;61.60;;;15.67;48.55;101325.00;5064498;27;97853;-68
2021/04/30 09:23:41;;;;;;;4.95;2.35;;;12.50;61.70;;;15.77;48.30;101315.47;5050667;27;96833;-68
2021/04/30 09:26:27;;;;;;;9.07;2.60;;;12.60;61.60;;;15.80;48.74;101327.53;5049315;27;97128;-68
2021/04/30 09:29:05;;;;;;;2.92;2.38;;;12.60;61.50;;;15.78;49.06;101319.75;5050966;27;97502;-68
2021/04/30 09:31:47;;;;;;;10.60;2.40;;;12.70;61.50;;;15.82;49.05;101322.59;5068379;27;96928;-68
2021/04/30 09:34:26;;;;;;;2.05;1.88;;;12.80;61.40;;;15.84;48.90;101320.34;5069405;27;97669;-68
2021/04/30 09:37:10;;;;;;;6.40;2.92;;;12.80;61.30;;;15.86;48.83;101323.53;5065096;27;96886;-68
2021/04/30 09:39:53;;;;;;;4.80;3.10;;;12.80;61.30;;;15.92;49.25;101322.25;5066946;27;97058;-68
2021/04/30 09:42:25;;;;;;;8.23;3.70;;;12.80;61.30;;;15.96;48.87;101332.09;5057358;27;99297;-68
2021/04/30 09:45:00;;;;;;;3.42;3.13;;;12.90;61.40;;;16.03;48.59;101329.66;5067878;27;97744;-68
2021/04/30 09:47:35;;;;;;;8.55;3.38;;;13.00;61.40;;;16.09;48.77;101330.31;5064165;27;96918;-68
2021/04/30 09:50:09;;;;;;;5.45;3.72;;;13.00;61.30;;;16.00;49.08;101334.94;5062821;27;96768;-68
2021/04/30 09:52:37;;;;;;;5.78;2.80;;;13.00;61.20;;;15.92;49.36;101343.88;5063228;27;97844;-68
2021/04/30 09:55:09;;;;;;;3.42;1.67;;;13.10;61.20;;;15.91;49.42;101342.25;5034245;27;97443;-68
2021/04/30 09:57:36;;;;;;;4.35;2.75;;;13.00;61.30;;;15.95;48.76;101341.31;5065530;27;97122;-68
2021/04/30 10:00:14;;;;;;;2.75;2.47;;;13.00;61.30;;;15.96;48.75;101342.13;5033882;27;96995;-68
2021/04/30 10:02:45;;;;;;;7.55;2.65;;;13.00;61.30;;;15.97;49.44;101336.38;5031284;27;97007;-68
2021/04/30 10:05:18;;;;;;;11.63;2.92;;;13.00;61.40;;;16.07;49.53;101335.25;5061180;27;96905;-68
2021/04/30 10:08:15;;;;;;;5.53;1.92;;;13.00;61.30;;;16.00;49.08;101340.34;5074748;27;97089;-68
2021/04/30 10:10:44;;;;;;;2.55;2.35;;;13.00;61.30;;;15.99;48.90;101344.94;5044518;27;97434;-68
2021/04/30 10:13:21;;;;;;;4.97;1.92;;;13.00;61.30;;;16.00;48.79;101341.13;5048983;27;97579;-65
2021/04/30 10:15:50;;;;;;;1.98;1.75;;;13.00;61.30;;;16.01;48.58;101348.13;5049249;27;98016;-65
2021/04/30 10:18:17;;;;;;;2.35;1.85;;;12.90;61.30;;;15.98;49.36;101343.38;5066766;27;97390;-65
2021/04/30 10:20:46;;;;;;;2.65;2.45;;;13.00;61.30;;;15.98;49.14;101343.38;5034052;27;98006;-65
2021/04/30 10:23:20;;;;;;;1.48;1.30;;;12.90;61.40;;;16.03;49.58;101340.47;5050399;27;97867;-65
2021/04/30 10:25:50;;;;;;;;;;;12.90;61.40;;;16.00;48.63;101351.94;5049629;27;96984;-66
2021/04/30 10:28:26;;;;;;;17.60;2.63;;;12.90;61.40;;;15.96;48.92;101342.13;5064505;27;96887;-66